createdAt,value
2023-10-06T00:00:49.458Z,18.50
2023-10-06T00:03:17.574Z,17.40
2023-10-06T00:05:45.716Z,17.10
2023-10-06T00:08:16.741Z,21.60
2023-10-06T00:10:53.192Z,23.90
2023-10-06T00:13:25.058Z,22.40
2023-10-06T00:15:52.718Z,17.10
2023-10-06T00:18:21.451Z,16.90
2023-10-06T00:20:57.065Z,16.10
2023-10-06T00:23:28.539Z,14.80
2023-10-06T00:25:56.780Z,17.30
2023-10-06T00:28:28.181Z,17.00
2023-10-06T00:31:02.705Z,16.00
2023-10-06T00:33:38.745Z,16.20
2023-10-06T00:36:19.932Z,14.90
2023-10-06T00:38:57.346Z,15.60
2023-10-06T00:41:28.048Z,15.20
2023-10-06T00:43:56.647Z,15.40
2023-10-06T00:46:25.055Z,15.80
2023-10-06T00:48:57.605Z,15.90
2023-10-06T00:51:27.329Z,14.40
2023-10-06T00:53:58.998Z,15.60
2023-10-06T00:56:29.006Z,15.10
2023-10-06T00:58:57.261Z,15.30
2023-10-06T01:01:25.088Z,16.70
2023-10-06T01:04:11.298Z,16.30
2023-10-06T01:06:40.556Z,18.30
2023-10-06T01:09:15.065Z,17.70
2023-10-06T01:11:53.036Z,18.30
2023-10-06T01:14:27.584Z,16.90
2023-10-06T01:17:05.750Z,16.40
2023-10-06T01:19:36.768Z,15.70
2023-10-06T01:22:26.063Z,15.80
2023-10-06T01:24:56.660Z,14.90
2023-10-06T01:27:27.674Z,16.20
2023-10-06T01:30:16.030Z,16.20
2023-10-06T01:32:46.960Z,16.00
2023-10-06T01:35:14.850Z,16.40
2023-10-06T01:37:46.238Z,16.50
2023-10-06T01:40:20.176Z,16.50
2023-10-06T01:42:49.634Z,17.30
2023-10-06T01:45:20.547Z,17.00
2023-10-06T01:47:58.159Z,17.90
2023-10-06T01:50:28.817Z,19.90
2023-10-06T01:53:00.089Z,19.60
2023-10-06T01:55:28.038Z,19.60
2023-10-06T01:57:55.656Z,19.40
2023-10-06T02:00:28.181Z,19.70
2023-10-06T02:02:55.878Z,17.60
2023-10-06T02:05:23.458Z,18.00
2023-10-06T02:07:52.919Z,18.90
2023-10-06T02:10:20.486Z,16.20
2023-10-06T02:12:48.120Z,18.20
2023-10-06T02:15:16.197Z,17.70
2023-10-06T02:17:44.370Z,16.70
2023-10-06T02:20:27.117Z,15.70
2023-10-06T02:23:01.073Z,16.40
2023-10-06T02:25:33.091Z,17.50
2023-10-06T02:28:06.293Z,14.70
2023-10-06T02:30:38.942Z,15.40
2023-10-06T02:33:06.810Z,16.40
2023-10-06T02:35:41.565Z,15.50
2023-10-06T02:38:09.688Z,18.10
2023-10-06T02:40:46.498Z,14.70
2023-10-06T02:43:21.963Z,15.50
2023-10-06T02:45:49.652Z,16.80
2023-10-06T02:50:08.798Z,15.50
2023-10-06T02:52:43.321Z,15.50
2023-10-06T02:55:12.164Z,15.20
2023-10-06T02:57:40.311Z,15.70
2023-10-06T03:00:26.600Z,16.30
2023-10-06T03:03:04.472Z,16.00
2023-10-06T03:05:40.230Z,16.30
2023-10-06T03:08:10.896Z,16.60
2023-10-06T03:10:45.988Z,15.60
2023-10-06T03:13:17.483Z,16.10
2023-10-06T03:15:48.303Z,14.50
2023-10-06T03:18:17.849Z,14.20
2023-10-06T03:20:49.282Z,15.80
2023-10-06T03:23:39.146Z,14.00
2023-10-06T03:26:14.952Z,14.50
2023-10-06T03:28:49.964Z,15.20
2023-10-06T03:31:20.449Z,14.00
2023-10-06T03:33:53.610Z,14.00
2023-10-06T03:36:50.368Z,15.00
2023-10-06T03:39:24.164Z,15.50
2023-10-06T03:44:27.386Z,15.20
2023-10-06T03:46:56.763Z,13.80
2023-10-06T03:49:27.335Z,14.20
2023-10-06T03:51:57.405Z,14.10
2023-10-06T03:54:27.836Z,14.10
2023-10-06T03:56:55.433Z,13.80
2023-10-06T03:59:24.874Z,14.40
2023-10-06T04:01:53.248Z,13.50
2023-10-06T04:04:24.113Z,14.80
2023-10-06T04:06:52.120Z,13.10
2023-10-06T04:09:29.874Z,13.20
2023-10-06T04:12:02.802Z,11.80
2023-10-06T04:14:33.191Z,14.80
2023-10-06T04:17:02.860Z,14.30
2023-10-06T04:19:30.627Z,13.80
2023-10-06T04:21:58.281Z,14.50
2023-10-06T04:24:25.822Z,13.00
2023-10-06T04:26:53.449Z,13.70
2023-10-06T04:29:21.001Z,13.90
2023-10-06T04:31:49.176Z,13.90
2023-10-06T04:34:16.898Z,12.90
2023-10-06T04:36:44.456Z,13.60
2023-10-06T04:39:17.327Z,12.40
2023-10-06T04:41:44.927Z,12.90
2023-10-06T04:44:12.581Z,13.90
2023-10-06T04:46:41.174Z,13.50
2023-10-06T04:49:09.189Z,14.00
2023-10-06T04:51:36.910Z,15.10
2023-10-06T04:54:09.371Z,14.10
2023-10-06T04:56:37.237Z,15.40
2023-10-06T04:59:07.298Z,14.30
2023-10-06T05:01:35.382Z,13.20
2023-10-06T05:04:07.538Z,14.60
2023-10-06T05:06:35.168Z,14.00
2023-10-06T05:09:04.077Z,13.60
2023-10-06T05:11:34.189Z,13.60
2023-10-06T05:14:02.762Z,12.70
2023-10-06T05:16:30.653Z,13.90
2023-10-06T05:18:58.364Z,14.30
2023-10-06T05:21:26.029Z,14.10
2023-10-06T05:23:54.681Z,13.30
2023-10-06T05:26:22.660Z,12.50
2023-10-06T05:28:52.081Z,13.00
2023-10-06T05:31:19.973Z,13.00
2023-10-06T05:33:47.826Z,11.60
2023-10-06T05:36:19.309Z,12.50
2023-10-06T05:38:49.022Z,12.70
2023-10-06T05:41:16.986Z,12.40
2023-10-06T05:43:44.902Z,12.50
2023-10-06T05:46:13.034Z,12.60
2023-10-06T05:48:41.562Z,12.20
2023-10-06T05:51:16.445Z,13.40
2023-10-06T05:53:45.539Z,13.60
2023-10-06T05:56:13.902Z,13.10
2023-10-06T05:58:42.536Z,12.60
2023-10-06T06:01:20.414Z,14.20
2023-10-06T06:03:49.001Z,13.20
2023-10-06T06:06:18.185Z,12.80
2023-10-06T06:08:49.671Z,12.80
2023-10-06T06:11:17.787Z,12.20
2023-10-06T06:13:52.779Z,12.90
2023-10-06T06:16:27.000Z,13.20
2023-10-06T06:18:54.636Z,12.90
2023-10-06T06:21:26.535Z,13.00
2023-10-06T06:23:57.355Z,11.80
2023-10-06T06:26:25.545Z,13.50
2023-10-06T06:28:54.526Z,14.70
2023-10-06T06:31:22.614Z,15.00
2023-10-06T06:33:58.644Z,14.00
2023-10-06T06:36:27.925Z,12.40
2023-10-06T06:38:55.732Z,13.10
2023-10-06T06:41:23.539Z,13.30
2023-10-06T06:43:55.972Z,13.70
2023-10-06T06:46:23.576Z,12.90
2023-10-06T06:48:51.158Z,11.10
2023-10-06T06:51:19.943Z,12.00
2023-10-06T06:53:48.790Z,12.40
2023-10-06T06:56:18.517Z,13.90
2023-10-06T06:58:47.874Z,11.40
2023-10-06T07:01:17.427Z,11.40
2023-10-06T07:03:45.185Z,12.80
2023-10-06T07:06:18.001Z,12.60
2023-10-06T07:08:46.746Z,11.30
2023-10-06T07:11:14.633Z,11.90
2023-10-06T07:13:43.670Z,11.70
2023-10-06T07:16:11.492Z,10.70
2023-10-06T07:18:39.365Z,10.60
2023-10-06T07:21:10.650Z,11.50
2023-10-06T07:23:41.211Z,10.60
2023-10-06T07:26:12.609Z,9.60
2023-10-06T07:28:41.447Z,10.40
2023-10-06T07:31:14.022Z,10.70
2023-10-06T07:33:42.852Z,9.90
2023-10-06T07:36:19.054Z,10.10
2023-10-06T07:38:47.482Z,8.90
2023-10-06T07:41:19.393Z,9.00
2023-10-06T07:43:49.965Z,8.80
2023-10-06T07:46:18.234Z,8.40
2023-10-06T07:48:47.407Z,8.50
2023-10-06T07:51:15.255Z,8.50
2023-10-06T07:53:45.197Z,7.70
2023-10-06T07:56:13.352Z,8.90
2023-10-06T07:58:44.811Z,8.60
2023-10-06T08:01:14.824Z,8.20
2023-10-06T08:03:42.939Z,7.70
2023-10-06T08:06:12.309Z,7.60
2023-10-06T08:08:40.026Z,7.70
2023-10-06T08:11:08.026Z,7.70
2023-10-06T08:13:36.274Z,7.90
2023-10-06T08:16:04.352Z,8.00
2023-10-06T08:18:31.958Z,8.00
2023-10-06T08:21:02.489Z,8.30
2023-10-06T08:23:33.825Z,7.80
2023-10-06T08:26:02.996Z,8.40
2023-10-06T08:28:33.200Z,9.00
2023-10-06T08:31:04.954Z,7.80
2023-10-06T08:33:33.485Z,8.20
2023-10-06T08:36:03.144Z,8.10
2023-10-06T08:38:32.253Z,7.90
2023-10-06T08:41:02.695Z,8.10
2023-10-06T08:43:30.873Z,8.80
2023-10-06T08:46:01.344Z,8.20
2023-10-06T08:48:33.356Z,7.60
2023-10-06T08:51:04.694Z,8.80
2023-10-06T08:53:32.738Z,7.90
2023-10-06T08:56:00.612Z,7.70
2023-10-06T08:58:28.481Z,8.10
2023-10-06T09:00:57.338Z,8.00
2023-10-06T09:03:28.213Z,8.40
2023-10-06T09:05:56.679Z,7.90
2023-10-06T09:08:25.205Z,6.90
2023-10-06T09:10:53.154Z,7.40
2023-10-06T09:13:22.189Z,6.30
2023-10-06T09:15:57.937Z,7.40
2023-10-06T09:18:29.064Z,6.50
2023-10-06T09:21:21.373Z,6.70
2023-10-06T09:23:50.644Z,6.40
2023-10-06T09:26:29.471Z,7.00
2023-10-06T09:28:57.611Z,6.00
2023-10-06T09:31:38.432Z,6.00
2023-10-06T09:34:10.114Z,6.00
2023-10-06T09:36:44.852Z,6.10
2023-10-06T09:39:18.968Z,5.30
2023-10-06T09:41:49.266Z,5.80
2023-10-06T09:44:19.484Z,5.40
2023-10-06T09:46:47.425Z,4.90
2023-10-06T09:49:19.776Z,5.60
2023-10-06T09:51:47.571Z,5.70
2023-10-06T09:54:16.056Z,5.10
2023-10-06T09:56:44.024Z,5.00
2023-10-06T09:59:15.300Z,5.40
2023-10-06T10:01:49.215Z,5.70
2023-10-06T10:04:17.112Z,5.80
2023-10-06T10:06:45.763Z,5.50
2023-10-06T10:09:18.431Z,6.00
2023-10-06T10:11:57.699Z,5.80
2023-10-06T10:14:56.425Z,5.30
2023-10-06T10:17:36.900Z,5.80
2023-10-06T10:20:10.676Z,5.70
2023-10-06T10:22:42.100Z,5.20
2023-10-06T10:27:41.291Z,5.10
2023-10-06T10:30:13.897Z,4.70
2023-10-06T10:32:43.165Z,5.50
2023-10-06T10:35:14.850Z,4.90
2023-10-06T10:37:57.331Z,5.00
2023-10-06T10:40:30.082Z,5.30
2023-10-06T10:43:07.704Z,4.20
2023-10-06T10:45:45.014Z,5.20
2023-10-06T10:48:16.961Z,5.20
2023-10-06T10:51:04.469Z,5.60
2023-10-06T10:53:45.277Z,5.60
2023-10-06T10:56:16.314Z,5.60
2023-10-06T10:58:45.402Z,5.30
2023-10-06T11:01:31.358Z,5.30
2023-10-06T11:04:14.456Z,5.10
2023-10-06T11:06:44.217Z,5.40
2023-10-06T11:09:27.997Z,6.10
2023-10-06T11:12:11.750Z,5.40
2023-10-06T11:14:44.837Z,5.60
2023-10-06T11:17:13.459Z,5.20
2023-10-06T11:19:41.407Z,5.80
2023-10-06T11:22:13.154Z,5.30
2023-10-06T11:24:41.461Z,5.00
2023-10-06T11:27:13.399Z,5.90
2023-10-06T11:29:41.101Z,5.80
2023-10-06T11:32:09.006Z,5.40
2023-10-06T11:34:36.840Z,5.20
2023-10-06T11:37:06.394Z,4.70
2023-10-06T11:39:33.994Z,4.80
2023-10-06T11:42:26.670Z,5.50
2023-10-06T11:44:54.635Z,4.90
2023-10-06T11:47:36.947Z,5.30
2023-10-06T11:50:07.036Z,4.50
2023-10-06T11:52:34.853Z,4.10
2023-10-06T11:55:09.915Z,4.60
2023-10-06T11:57:47.515Z,3.90
2023-10-06T12:00:18.773Z,4.50
2023-10-06T12:02:52.929Z,4.50
2023-10-06T12:05:23.079Z,4.90
2023-10-06T12:07:53.760Z,4.70
2023-10-06T12:10:22.588Z,4.00
2023-10-06T12:12:53.439Z,3.20
2023-10-06T12:15:21.818Z,2.90
2023-10-06T12:17:51.963Z,4.10
2023-10-06T12:20:20.398Z,4.00
2023-10-06T12:22:48.411Z,3.50
2023-10-06T12:25:23.699Z,3.80
2023-10-06T12:27:51.625Z,3.20
2023-10-06T12:30:19.449Z,3.60
2023-10-06T12:32:47.329Z,3.10
2023-10-06T12:35:20.076Z,2.80
2023-10-06T12:37:48.116Z,3.00
2023-10-06T12:40:16.737Z,2.90
2023-10-06T12:42:44.780Z,3.30
2023-10-06T12:45:22.073Z,4.00
2023-10-06T12:47:50.308Z,3.80
2023-10-06T12:50:20.230Z,3.50
2023-10-06T12:52:54.270Z,2.90
2023-10-06T12:55:28.725Z,2.70
2023-10-06T12:57:56.385Z,2.80
2023-10-06T13:00:24.046Z,2.50
2023-10-06T13:02:52.051Z,2.30
2023-10-06T13:05:24.494Z,2.40
2023-10-06T13:07:52.987Z,2.50
2023-10-06T13:10:24.310Z,3.30
2023-10-06T13:12:52.246Z,2.80
2023-10-06T13:15:20.801Z,3.20
2023-10-06T13:17:51.788Z,2.60
2023-10-06T13:20:19.622Z,2.10
2023-10-06T13:22:50.852Z,3.10
2023-10-06T13:25:19.416Z,2.80
2023-10-06T13:27:49.190Z,3.10
2023-10-06T13:30:20.406Z,3.10
2023-10-06T13:32:53.186Z,2.90
2023-10-06T13:35:21.448Z,3.00
2023-10-06T13:37:49.700Z,4.10
2023-10-06T13:40:18.919Z,3.00
2023-10-06T13:42:50.109Z,3.10
2023-10-06T13:45:24.730Z,3.50
2023-10-06T13:47:56.292Z,3.90
2023-10-06T13:50:26.873Z,3.00
2023-10-06T13:52:54.650Z,3.20
2023-10-06T13:55:23.650Z,3.60
2023-10-06T13:57:56.488Z,3.80
2023-10-06T14:00:30.967Z,4.30
2023-10-06T14:03:08.490Z,3.80
2023-10-06T14:05:39.849Z,3.80
2023-10-06T14:08:08.162Z,3.50
2023-10-06T14:10:38.823Z,3.00
2023-10-06T14:13:10.017Z,3.60
2023-10-06T14:15:46.873Z,3.80
2023-10-06T14:18:15.485Z,3.60
2023-10-06T14:20:47.587Z,3.20
2023-10-06T14:23:16.112Z,3.30
2023-10-06T14:25:44.289Z,3.00
2023-10-06T14:28:12.019Z,3.60
2023-10-06T14:30:44.003Z,3.00
2023-10-06T14:33:24.153Z,3.10
2023-10-06T14:36:01.972Z,3.30
2023-10-06T14:38:34.143Z,4.00
2023-10-06T14:41:23.425Z,3.20
2023-10-06T14:44:10.954Z,2.80
2023-10-06T14:46:40.619Z,2.90
2023-10-06T14:49:15.217Z,2.90
2023-10-06T14:51:43.585Z,3.10
2023-10-06T14:54:12.510Z,2.60
2023-10-06T14:56:41.005Z,3.30
2023-10-06T14:59:11.872Z,2.40
2023-10-06T15:01:41.778Z,2.80
2023-10-06T15:04:14.585Z,2.60
2023-10-06T15:07:03.045Z,2.20
2023-10-06T15:09:31.857Z,2.70
2023-10-06T15:11:59.573Z,2.40
2023-10-06T15:14:27.555Z,2.90
2023-10-06T15:16:55.545Z,3.20
2023-10-06T15:19:26.753Z,3.30
2023-10-06T15:21:56.499Z,3.00
2023-10-06T15:24:24.384Z,3.40
2023-10-06T15:26:52.658Z,2.50
2023-10-06T15:29:26.392Z,2.70
2023-10-06T15:31:54.110Z,3.30
2023-10-06T15:34:21.748Z,3.60
2023-10-06T15:36:49.315Z,2.80
2023-10-06T15:39:20.260Z,2.90
2023-10-06T15:41:50.162Z,3.70
2023-10-06T15:44:18.937Z,2.50
2023-10-06T15:46:46.957Z,3.20
2023-10-06T15:49:17.391Z,3.40
2023-10-06T15:51:48.580Z,2.80
2023-10-06T15:54:17.518Z,2.60
2023-10-06T15:56:47.647Z,2.80
2023-10-06T15:59:16.623Z,2.80
2023-10-06T16:01:45.870Z,2.80
2023-10-06T16:04:15.900Z,2.80
2023-10-06T16:06:44.748Z,2.40
2023-10-06T16:09:17.808Z,3.60
2023-10-06T16:11:46.418Z,3.30
2023-10-06T16:14:17.410Z,2.60
2023-10-06T16:16:47.737Z,2.40
2023-10-06T16:19:16.032Z,2.20
2023-10-06T16:21:43.855Z,2.50
2023-10-06T16:24:13.686Z,2.60
2023-10-06T16:26:42.326Z,2.30
2023-10-06T16:29:11.495Z,2.20
2023-10-06T16:31:39.821Z,1.90
2023-10-06T16:34:07.828Z,2.20
2023-10-06T16:36:36.354Z,2.60
2023-10-06T16:39:17.612Z,1.90
2023-10-06T16:41:46.160Z,2.00
2023-10-06T16:44:14.704Z,2.00
2023-10-06T16:46:42.742Z,2.70
2023-10-06T16:49:10.807Z,2.40
2023-10-06T16:51:40.838Z,2.40
2023-10-06T16:54:11.530Z,1.90
2023-10-06T16:56:39.471Z,2.70
2023-10-06T16:59:07.609Z,2.00
2023-10-06T17:01:36.120Z,1.90
2023-10-06T17:04:07.734Z,2.20
2023-10-06T17:06:36.755Z,2.50
2023-10-06T17:09:15.481Z,2.40
2023-10-06T17:11:44.460Z,2.70
2023-10-06T17:14:13.306Z,2.40
2023-10-06T17:16:43.000Z,2.90
2023-10-06T17:19:13.544Z,2.50
2023-10-06T17:21:43.842Z,2.50
2023-10-06T17:24:12.527Z,2.90
2023-10-06T17:26:40.500Z,2.80
2023-10-06T17:29:08.725Z,3.10
2023-10-06T17:31:36.774Z,3.00
2023-10-06T17:34:05.898Z,2.30
2023-10-06T17:36:33.685Z,2.70
2023-10-06T17:39:03.567Z,2.80
2023-10-06T17:41:31.499Z,3.80
2023-10-06T17:43:59.243Z,3.00
2023-10-06T17:46:27.150Z,3.50
2023-10-06T17:48:55.115Z,2.80
2023-10-06T17:51:22.904Z,2.70
2023-10-06T17:53:50.989Z,2.70
2023-10-06T17:56:21.400Z,3.10
2023-10-06T17:58:51.333Z,2.60
2023-10-06T18:01:20.279Z,2.60
2023-10-06T18:03:49.117Z,2.40
2023-10-06T18:06:18.658Z,2.70
2023-10-06T18:08:46.716Z,3.20
2023-10-06T18:11:15.739Z,3.00
2023-10-06T18:13:43.861Z,2.70
2023-10-06T18:16:11.553Z,3.30
2023-10-06T18:18:39.395Z,3.50
2023-10-06T18:21:07.112Z,3.00
2023-10-06T18:23:34.986Z,2.60
2023-10-06T18:26:02.620Z,2.40
2023-10-06T18:28:30.330Z,3.10
2023-10-06T18:30:58.011Z,2.60
2023-10-06T18:33:26.052Z,2.30
2023-10-06T18:35:53.661Z,2.80
2023-10-06T18:38:21.350Z,2.40
2023-10-06T18:40:59.918Z,2.60
2023-10-06T18:43:27.768Z,3.60
2023-10-06T18:45:57.148Z,3.00
2023-10-06T18:48:25.062Z,2.70
2023-10-06T18:50:57.007Z,2.70
2023-10-06T18:53:25.135Z,3.20
2023-10-06T18:55:53.805Z,2.10
2023-10-06T18:58:21.751Z,2.60
2023-10-06T19:00:50.044Z,3.60
2023-10-06T19:03:18.067Z,2.40
2023-10-06T19:05:47.931Z,3.10
2023-10-06T19:08:16.072Z,3.30
2023-10-06T19:10:47.274Z,2.30
2023-10-06T19:13:15.447Z,3.80
2023-10-06T19:15:43.710Z,3.20
2023-10-06T19:18:11.432Z,2.70
2023-10-06T19:20:40.069Z,2.70
2023-10-06T19:23:11.013Z,3.20
2023-10-06T19:25:43.379Z,2.60
2023-10-06T19:28:12.086Z,2.90
2023-10-06T19:30:40.029Z,3.90
2023-10-06T19:33:08.053Z,3.30
2023-10-06T19:35:39.598Z,2.80
2023-10-06T19:38:09.018Z,2.90
2023-10-06T19:40:36.819Z,3.80
2023-10-06T19:43:04.809Z,3.30
2023-10-06T19:45:32.514Z,3.50
2023-10-06T19:48:00.181Z,3.10
2023-10-06T19:50:27.918Z,2.90
2023-10-06T19:52:55.490Z,3.10
2023-10-06T19:55:23.323Z,2.80
2023-10-06T19:57:50.887Z,2.60
2023-10-06T20:00:27.485Z,3.50
2023-10-06T20:02:57.011Z,3.20
2023-10-06T20:05:26.850Z,2.90
2023-10-06T20:07:54.538Z,2.50
2023-10-06T20:10:23.211Z,2.20
2023-10-06T20:12:52.719Z,2.70
2023-10-06T20:15:20.583Z,1.90
2023-10-06T20:17:48.325Z,3.20
2023-10-06T20:20:21.840Z,2.90
2023-10-06T20:22:51.566Z,2.80
2023-10-06T20:25:21.023Z,2.40
2023-10-06T20:27:48.852Z,3.00
2023-10-06T20:30:23.348Z,2.50
2023-10-06T20:32:55.592Z,2.80
2023-10-06T20:35:24.010Z,2.40
2023-10-06T20:37:51.813Z,3.20
2023-10-06T20:40:25.889Z,1.90
2023-10-06T20:42:57.020Z,2.70
2023-10-06T20:45:28.254Z,2.90
2023-10-06T20:47:56.723Z,2.50
2023-10-06T20:50:28.536Z,2.40
2023-10-06T20:52:57.125Z,3.10
2023-10-06T20:55:25.398Z,2.70
2023-10-06T20:57:54.040Z,2.50
2023-10-06T21:00:24.567Z,2.30
2023-10-06T21:02:52.509Z,2.50
2023-10-06T21:05:21.160Z,2.90
2023-10-06T21:07:49.804Z,2.70
2023-10-06T21:10:18.857Z,2.60
2023-10-06T21:12:46.864Z,2.30
2023-10-06T21:15:15.985Z,2.60
2023-10-06T21:17:44.235Z,3.60
2023-10-06T21:20:13.829Z,2.90
2023-10-06T21:22:41.593Z,2.50
2023-10-06T21:25:15.199Z,3.70
2023-10-06T21:27:43.201Z,3.70
2023-10-06T21:30:17.257Z,2.40
2023-10-06T21:32:46.121Z,2.70
2023-10-06T21:35:15.424Z,3.00
2023-10-06T21:37:43.817Z,2.40
2023-10-06T21:40:13.234Z,2.80
2023-10-06T21:42:43.830Z,3.50
2023-10-06T21:45:12.007Z,3.40
2023-10-06T21:47:39.724Z,3.00
2023-10-06T21:50:07.639Z,3.00
2023-10-06T21:52:35.233Z,3.40
2023-10-06T21:55:03.589Z,2.90
2023-10-06T21:57:36.192Z,3.80
2023-10-06T22:00:12.543Z,3.30
2023-10-06T22:02:40.259Z,3.60
2023-10-06T22:05:08.197Z,3.80
2023-10-06T22:07:35.904Z,3.10
2023-10-06T22:10:04.006Z,3.90
2023-10-06T22:12:31.520Z,3.90
2023-10-06T22:14:59.357Z,3.40
2023-10-06T22:17:27.002Z,3.40
2023-10-06T22:19:54.809Z,4.00
2023-10-06T22:22:22.823Z,3.70
2023-10-06T22:24:50.518Z,3.30
2023-10-06T22:27:18.331Z,3.60
2023-10-06T22:29:46.859Z,3.60
2023-10-06T22:32:15.588Z,2.60
2023-10-06T22:34:43.276Z,3.20
2023-10-06T22:37:19.102Z,3.40
2023-10-06T22:39:47.793Z,3.60
2023-10-06T22:42:15.357Z,3.60
2023-10-06T22:44:42.916Z,4.20
2023-10-06T22:47:10.571Z,4.70
2023-10-06T22:49:38.190Z,4.30
2023-10-06T22:52:05.794Z,5.10
2023-10-06T22:54:34.360Z,5.70
2023-10-06T22:57:02.015Z,4.60
2023-10-06T22:59:29.585Z,6.10
2023-10-06T23:01:57.306Z,5.80
2023-10-06T23:04:24.987Z,5.80
2023-10-06T23:06:52.556Z,5.20
2023-10-06T23:09:20.097Z,6.40
2023-10-06T23:11:47.779Z,6.30
2023-10-06T23:14:16.150Z,5.90
2023-10-06T23:16:46.759Z,5.20
2023-10-06T23:19:15.063Z,5.10
2023-10-06T23:21:42.953Z,4.40
2023-10-06T23:24:16.014Z,5.10
2023-10-06T23:26:44.626Z,5.30
2023-10-06T23:29:13.736Z,4.10
2023-10-06T23:31:41.728Z,4.70
2023-10-06T23:34:10.733Z,3.40
2023-10-06T23:36:38.467Z,4.30
2023-10-06T23:39:09.991Z,4.30
2023-10-06T23:41:38.575Z,4.00
2023-10-06T23:44:08.942Z,4.70
2023-10-06T23:46:36.797Z,4.40
2023-10-06T23:49:04.630Z,4.60
2023-10-06T23:51:33.891Z,4.30
2023-10-06T23:54:01.537Z,4.50
2023-10-06T23:56:32.507Z,4.80
2023-10-06T23:59:00.425Z,6.30
